Weather observations for the past three days for
Maple Lake, Maple Lake Municipal Airport
Metric (Imperial)
Date Time (cdt) Wind (kph) Vis. (km) Weather Sky Cond. Temperature (ºC) Relative Humidity Wind Chill (°C) Heat Index (°C) Pressure Precipitation (cm)
Air Dwpt 6 hour altimeter (cm) sea level (mb) 1 hr 3 hr 6 hr
Max. Min.
10 09:35 N 17 16.09 Mostly Cloudy BKN090 0 0 0% 76.58 0.0
10 09:15 N 20 16.09 Partly Cloudy SCT090 0 0 0% 76.58 0.0
10 08:55 N 17 16.09 Partly Cloudy SCT090 0 0 0% 76.56 0.0
10 08:35 N 15 16.09 Mostly Cloudy SCT075 BKN100 0 0 0% 76.56 0.0
10 08:15 N 15 16.09 Overcast OVC075 0 0 0% 76.56 0.0
10 07:55 N 11 16.09 Mostly Cloudy BKN075 BKN085 BKN100 0 0 0% 76.53 0.0
10 07:35 Calm 16.09 Mostly Cloudy SCT075 BKN100 0 0 0% 76.5 0.0
10 07:15 Calm 16.09 Overcast SCT075 OVC100 0 0 0% 76.48 0.0
10 06:55 N 6 16.09 Overcast OVC100 0 0 0% 76.45 0.0
10 06:35 N 6 16.09 Overcast OVC100 0 0 0% 76.45 0.0
10 06:15 N 9 16.09 Overcast OVC100 0 0 0% 76.43 0.0
10 05:55 N 9 16.09 Overcast OVC100 0 0 0% 76.43 0.0
10 05:35 NW 7 16.09 Overcast OVC100 0 0 0% 76.4 0.0
10 05:15 Calm 16.09 Overcast OVC100 4.4 -43 1% 76.38 0.0
10 04:55 Calm 16.09 Overcast OVC100 0 0 0% 76.33 0.0
10 04:35 Calm 16.09 Overcast OVC100 0 0 0% 76.33 0.0
10 04:15 Calm 16.09 Mostly Cloudy BKN100 3 -42.4 2% 76.33 0.0
10 03:55 Calm 16.09 Partly Cloudy SCT100 0 0 0% 76.3 0.0
10 03:35 Calm 16.09 Partly Cloudy SCT095 0 0 0% 76.28 0.0
10 03:15 Calm 16.09 Overcast OVC095 0 0 0% 76.28 0.0
10 02:55 Calm 16.09 Overcast OVC095 0 0 0% 76.25 0.0
10 02:35 Calm 16.09 Overcast OVC095 0 0 0% 76.25 0.0
10 02:15 Calm 16.09 Mostly Cloudy BKN095 0 0 0% 76.25 0.0
10 01:55 Calm 16.09 Fair CLR 0 0 0% 76.25 0.0
10 01:35 Calm 16.09 Fair CLR 0 0 0% 76.25 0.0
10 01:15 Calm 16.09 Fair CLR 0 0 0% 76.25 0.0
10 00:55 Calm 16.09 Fair CLR 0 0 0% 76.25 0.0
10 00:35 Calm 16.09 Partly Cloudy SCT090 0 0 0% 76.23 0.0
10 00:15 Calm 16.09 Overcast OVC090 0 0 0% 76.2 0.0
09 23:55 Calm 16.09 Overcast OVC090 0 0 0% 76.2 0.0
09 23:35 Calm 16.09 Overcast OVC090 0 0 0% 76.23 0.0
09 23:15 Calm 16.09 Overcast OVC090 0 0 0% 76.2 0.0
09 22:55 Calm 16.09 Mostly Cloudy BKN090 0 0 0% 76.2 0.0
09 22:35 NW 6 16.09 Partly Cloudy SCT090 0 0 0% 76.2 0.0
09 22:15 NW 13 16.09 Fair CLR 0 0 0% 76.2 0.0
09 21:55 NW 11 16.09 Fair CLR 0 0 0% 76.17 0.0
09 21:35 NW 11 16.09 Fair CLR 0 0 0% 76.12 0.0
09 21:15 NW 11 16.09 Fair CLR 0 0 0% 76.1 0.0
09 20:55 NW 11 16.09 Fair CLR 0 0 0% 76.05 0.0
09 20:35 NW 15 G 26 16.09 Fair CLR 11.8 -5.9 29% 76.02 0.0
09 20:15 NW 17 16.09 Fair CLR 12.2 -5.8 28% 76 0.0
09 19:55 NW 17 G 26 16.09 Fair CLR 13 -5.9 27% 76 0.0
09 19:35 NW 17 16.09 Fair CLR 12.5 -5.8 28% 75.97 0.0
09 19:15 NW 15 G 31 16.09 Partly Cloudy SCT080 13.2 -6 26% 75.97 0.0
09 18:55 NW 24 G 33 16.09 Partly Cloudy SCT080 13.8 -5.8 15.8 13.7 25% 75.95 0.0
09 18:35 NW 17 G 41 16.09 Partly Cloudy SCT080 14.4 -5.7 25% 75.92 0.0
09 18:15 NW 20 G 35 16.09 Partly Cloudy SCT080 15 -5.3 24% 75.9 0.0
09 17:55 NW 19 G 28 16.09 Partly Cloudy SCT080 15.1 -4.8 25% 75.9 0.0
09 17:35 N 24 G 41 16.09 Fair CLR 15.4 -5.8 23% 75.87 0.0
09 17:15 NW 24 G 37 16.09 Fair CLR 15.1 -5.6 24% 75.87 0.0
09 16:55 N 19 G 41 16.09 Fair CLR 15.1 -5.3 24% 75.87 0.0
09 16:35 N 22 G 39 16.09 Partly Cloudy SCT075 15.6 -4.8 24% 75.87 0.0
09 16:15 NW 22 G 37 16.09 Fair CLR 15.2 -4.6 25% 75.84 0.0
09 15:55 NW 28 G 41 16.09 Fair CLR 15.1 -4.9 25% 75.84 0.0
09 15:35 NW 28 G 41 16.09 Fair CLR 15.1 -4.8 25% 75.84 0.0
09 15:15 N 24 G 44 16.09 Fair CLR 15 -4.8 25% 75.82 0.0
09 14:55 NW 26 G 41 16.09 Fair CLR 15 -4.2 26% 75.82 0.0
09 14:35 NW 26 G 39 16.09 Fair CLR 14.9 -4 27% 75.82 0.0
09 14:15 NW 26 G 33 16.09 Fair CLR 14.5 -3.8 28% 75.79 0.0
09 13:55 NW 26 G 37 16.09 Fair CLR 14.5 -4.6 27% 75.79 0.0
09 13:35 N 30 G 39 16.09 Fair CLR 14.5 -4.6 27% 75.79 0.0
09 13:15 N 20 G 37 16.09 Fair CLR 14.2 -4.1 28% 75.77 0.0
09 12:35 NW 26 G 37 16.09 Fair CLR 13.9 -3.2 31% 75.77 0.0
09 12:15 N 28 G 44 16.09 Fair CLR 13.5 -2.5 33% 75.74 0.0
09 11:55 N 20 G 39 16.09 Fair CLR 13.1 -2.4 34% 75.74 0.0
09 11:35 N 30 G 35 16.09 Fair CLR 12.9 -2.2 35% 75.74 0.0
09 11:15 NW 28 G 41 16.09 Fair CLR 12.4 -2.4 36% 75.72 0.0
09 10:55 NW 26 G 39 16.09 Partly Cloudy SCT050 12.6 -1.7 37% 75.69 0.0
09 10:35 N 28 G 41 16.09 Fair CLR 12.3 -1.1 40% 75.67 0.0
09 10:15 N 24 G 33 16.09 Fair CLR 12.1 -0.3 43% 75.64 0.0
09 09:55 NW 20 G 35 16.09 Fair CLR 11.8 0.3 45% 75.62 0.0
09 09:35 NW 20 G 30 16.09 Fair CLR 11.5 1.8 52% 75.62 0.0
09 09:15 NW 20 G 30 16.09 Fair CLR 11 1.7 53% 75.57 0.0
09 08:55 NW 26 G 33 16.09 Fair CLR 10.5 2.3 57% 75.57 0.0
09 08:35 N 24 G 35 16.09 Fair CLR 10.1 2.9 61% 75.57 0.0
09 08:15 N 17 16.09 Partly Cloudy SCT026 10 4.3 68% 8 75.54 0.0
09 07:55 NW 13 16.09 Fair CLR 9.8 5 72% 8 75.51 0.0
09 07:35 NW 15 16.09 Partly Cloudy SCT014 SCT032 9.4 5.2 75% 7 75.46 0.0
09 07:15 N 19 16.09 Mostly Cloudy BKN016 BKN032 8.9 5.5 79% 6 75.44 0.0
09 06:55 NW 19 16.09 Overcast OVC017 9.1 6 12 8.6 81% 7 75.44 0.0 0.03
09 06:35 NW 22 G 33 16.09 Overcast BKN020 OVC024 9.4 6.1 80% 7 75.41 0.0
09 06:15 NW 13 16.09 Overcast OVC024 9.6 6.9 83% 8 75.36 0.0
09 05:55 NW 13 16.09 Overcast BKN024 OVC028 10 6.1 77% 8 75.34 0.0
09 05:35 NW 9 16.09 Overcast BKN026 OVC045 9.5 -24.1 7% 8 75.29 0.0
09 05:15 Calm 16.09 Overcast SCT045 OVC055 9.6 -18.1 12% 75.29 0.0
09 04:55 Calm 16.09 Overcast SCT045 OVC055 9.5 -16.1 15% 75.26 0.0 0.03
09 04:35 Calm 16.09 Light Drizzle BKN065 OVC070 9.6 -1 48% 75.26 0.0 0.03
09 04:15 NW 6 11.27 Light Rain SCT043 BKN060 OVC070 10.2 6 75% 75.26 0.0 0.03
09 03:55 NW 9 16.09 Light Rain BKN080 BKN090 10.7 5.2 69% 75.31 0.0
09 03:35 NW 9 16.09 Mostly Cloudy SCT075 BKN090 11.1 3.5 60% 75.29 0.0
09 03:15 N 20 G 31 16.09 Overcast OVC090 11.5 2.9 56% 75.29 0.0
09 02:55 N 22 G 30 16.09 Mostly Cloudy BKN090 12 4.2 59% 75.26 0.0
09 02:35 NW 17 16.09 Fair CLR 11.3 0.3 47% 75.26 0.0
09 02:15 NW 9 16.09 Mostly Cloudy BKN080 11.1 -0.3 46% 75.26 0.0
09 01:55 Calm 16.09 Overcast OVC080 10.1 0.1 50% 75.21 0.0
09 01:35 Calm 16.09 Overcast OVC090 9.5 0.4 53% 75.21 0.0
09 01:15 Calm 16.09 Overcast BKN090 OVC110 8.8 -0.3 53% 75.21 0.0
09 00:55 Calm 16.09 Mostly Cloudy BKN110 8.6 -0.9 20.3 8.5 52% 75.21 0.0
09 00:35 Calm 16.09 Fair CLR 9 -0.7 51% 75.21 0.0
09 00:15 Calm 16.09 Fair CLR 9.2 -1.7 47% 75.21 0.0
08 23:55 Calm 16.09 Fair CLR 8.8 -0.8 51% 75.26 0.0
08 23:35 Calm 16.09 Fair CLR 9.1 -2.1 46% 75.26 0.0
08 23:15 Calm 16.09 Fair CLR 9.1 -1.3 48% 75.29 0.0
08 22:55 Calm 16.09 Fair CLR 11.4 -2.4 38% 75.29 0.0
08 22:35 Calm 16.09 Fair CLR 12.5 -4.3 31% 75.31 0.0
08 22:15 NW 7 16.09 Fair CLR 12.7 -4 31% 75.31 0.0
08 21:55 NW 7 16.09 Fair CLR 13.2 -3.8 31% 75.31 0.0
08 21:35 NW 9 16.09 Fair CLR 14.2 -4 28% 75.29 0.0
08 21:15 NW 13 G 26 16.09 Fair CLR 15.4 -4 26% 75.29 0.0
08 20:55 NW 17 G 33 16.09 Fair CLR 16.4 -4.1 24% 75.26 0.0
08 20:35 NW 22 G 33 16.09 Fair CLR 16.8 -4.4 23% 75.26 0.0
08 20:15 NW 19 G 35 16.09 Fair CLR 17.7 -3.8 23% 75.21 0.0
08 19:55 NW 26 G 37 16.09 Fair CLR 18.5 -3.8 22% 75.18 0.0
08 19:35 NW 26 G 39 16.09 Fair CLR 19.5 -4.5 19% 75.18 0.0
08 19:15 NW 31 G 44 16.09 Fair CLR 20.1 -21.5 5% 75.16 0.0
08 18:55 NW 19 G 35 16.09 Partly Cloudy SCT110 20.5 -20.9 5% 75.16 0.0
08 18:35 W 15 G 33 16.09 Partly Cloudy SCT110 21 -20.9 5% 75.16 0.0
08 18:15 W 22 G 33 16.09 Partly Cloudy SCT110 21.6 -20.5 5% 75.16 0.0
08 17:55 NW 22 G 37 16.09 Partly Cloudy SCT110 21.3 -19.7 5% 75.16 0.0
08 17:35 W 19 G 35 16.09 Partly Cloudy SCT110 21.4 -19.2 5% 75.16 0.0
08 17:15 W 20 G 41 16.09 Partly Cloudy SCT100 20.8 -20.8 5% 75.16 0.0
08 16:55 W 15 G 28 16.09 Partly Cloudy SCT100 21.9 -27.7 2% 75.16 0.0
08 16:35 NW 19 G 30 16.09 Partly Cloudy SCT100 0 0 0% 75.18 0.0
08 16:15 W 15 16.09 Partly Cloudy SCT110 21.3 -31.2 2% 75.18 0.0
08 15:55 NW 9 16.09 Partly Cloudy SCT100 21.1 -36.5 1% 75.21 0.0
08 15:35 NW 20 G 26 16.09 Partly Cloudy SCT110 0 0 0% 75.23 0.0
08 15:15 W 11 G 26 16.09 Partly Cloudy SCT110 0 0 0% 75.26 0.0
08 14:55 W 17 16.09 Fair CLR 0 0 0% 75.29 0.0
08 14:35 W 9 16.09 Partly Cloudy SCT110 0 0 0% 75.31 0.0
08 14:15 W 15 16.09 Partly Cloudy SCT110 0 0 0% 75.34 0.0
08 13:55 W 13 16.09 Partly Cloudy SCT100 SCT120 19.9 -6.1 17% 75.36 0.0
08 13:35 W 6 16.09 Partly Cloudy SCT100 18.5 -4.5 21% 75.36 0.0
08 13:15 NW 15 16.09 Partly Cloudy SCT110 18.6 -5.7 19% 75.39 0.0
08 12:55 NW 15 16.09 Partly Cloudy SCT110 19.5 -5.1 19.5 3.5 19% 75.41 0.0
08 12:35 NW 17 16.09 Partly Cloudy SCT120 18.4 -5.5 19% 75.44 0.0
08 12:15 W 11 G 26 16.09 Fair CLR 19 -5.1 19% 75.46 0.0
08 11:55 NW 17 G 28 16.09 Fair CLR 18.2 -5.2 20% 75.49 0.0
08 11:35 NW 17 16.09 Fair CLR 17.9 -4.2 22% 75.49 0.0
08 11:15 W 11 16.09 Fair CLR 17 -4.2 23% 75.51 0.0
08 10:55 W 11 16.09 Fair CLR 16.4 -3.1 26% 75.51 0.0
08 10:35 W 6 16.09 Partly Cloudy SCT090 15 -2.4 30% 75.54 0.0
08 10:15 W 7 16.09 Mostly Cloudy BKN100 14.1 -3.7 29% 75.54 0.0
08 09:55 W 6 16.09 Mostly Cloudy BKN100 13.5 -3.9 30% 75.57 0.0
08 09:35 W 13 16.09 Mostly Cloudy BKN100 13 -3.6 32% 75.57 0.0
08 09:15 SW 9 16.09 Mostly Cloudy BKN100 BKN120 12.7 -3.1 33% 75.57 0.0
08 08:55 SW 6 16.09 Mostly Cloudy BKN110 10.5 -1.9 42% 75.59 0.0
08 08:35 Calm 16.09 Mostly Cloudy BKN110 9.4 -1.6 46% 75.62 0.0
08 08:15 Calm 16.09 Overcast OVC100 8 0.3 59% 75.62 0.0
08 07:55 Calm 16.09 Overcast OVC100 7 0.3 63% 75.62 0.0
08 07:35 Calm 16.09 Mostly Cloudy BKN110 6.3 0.1 65% 75.62 0.0
08 07:15 Calm 16.09 Mostly Cloudy BKN100 5.1 -0.5 67% 75.62 0.0
08 06:55 Calm 16.09 Partly Cloudy SCT100 3 -2.9 5.7 1.5 66% 75.59 0.0
08 06:35 Calm 16.09 Fair CLR 1.6 -3.3 70% 75.59 0.0
08 06:15 Calm 16.09 Fair CLR 1.8 -3.4 69% 75.59 0.0
08 05:55 Calm 16.09 Fair CLR 1.8 -4.2 65% 75.59 0.0
08 05:35 Calm 16.09 Fair CLR 2.7 -3.9 62% 75.59 0.0
08 05:15 Calm 16.09 Fair CLR 4.5 -3.9 55% 75.59 0.0
08 04:55 Calm 16.09 Fair CLR 5 -5 49% 75.62 0.0
08 04:35 Calm 16.09 Fair CLR 4.9 -5 49% 75.62 0.0
08 04:15 Calm 16.09 Fair CLR 5 -4.8 50% 75.62 0.0
08 03:55 Calm 16.09 Fair CLR 4.7 -4.4 52% 75.62 0.0
08 03:35 Calm 16.09 Fair CLR 5.5 -4.4 49% 75.62 0.0
08 03:15 Calm 16.09 Fair CLR 5.4 -4.3 50% 75.62 0.0
08 02:55 Calm 16.09 Fair CLR 5.1 -3.8 53% 75.64 0.0
08 02:35 Calm 16.09 Fair CLR 4.1 -2.8 61% 75.64 0.0
08 02:15 Calm 16.09 Fair CLR 2.9 -1.4 74% 75.64 0.0
08 01:55 Calm 16.09 Fair CLR 3 -2.2 69% 75.64 0.0
08 01:35 Calm 16.09 Fair CLR 3.3 -1 74% 75.67 0.0
08 01:15 Calm 16.09 Fair CLR 3.6 -1.7 69% 75.67 0.0
08 00:55 Calm 16.09 Fair CLR 3.5 -1.4 15 3.5 71% 75.69 0.0
08 00:35 Calm 16.09 Fair CLR 4.2 -0.3 73% 75.69 0.0
08 00:15 Calm 16.09 Fair CLR 3.9 -1.3 69% 75.69 0.0
07 23:55 Calm 16.09 Fair CLR 3.9 -0.1 75% 75.72 0.0
07 23:35 Calm 16.09 Fair CLR 4.1 -0.2 74% 75.72 0.0
07 23:15 Calm 16.09 Fair CLR 4.5 -0.9 68% 75.72 0.0
07 22:55 Calm 16.09 Fair CLR 5.1 -2.1 60% 75.74 0.0
07 22:35 Calm 16.09 Fair CLR 5.6 0 68% 75.74 0.0
07 22:15 Calm 16.09 Fair CLR 6 -2.5 55% 75.74 0.0
07 21:55 Calm 16.09 Fair CLR 6.7 -2.7 51% 75.74 0.0
07 21:35 Calm 16.09 Fair CLR 7.3 -3 48% 75.74 0.0
07 21:15 Calm 16.09 Fair CLR 8.9 -4.8 38% 75.74 0.0
07 20:55 Calm 16.09 Fair CLR 10.3 -5.8 32% 75.72 0.0
07 20:35 Calm 16.09 Fair CLR 11.8 -6.2 28% 75.72 0.0
07 20:15 Calm 16.09 Fair CLR 12.9 -6.5 26% 75.72 0.0
07 19:55 W 7 16.09 Fair CLR 13.5 -6.8 24% 75.69 0.0
07 19:35 W 6 16.09 Fair CLR 13.9 -6.3 24% 75.69 0.0
07 19:15 W 9 16.09 Partly Cloudy SCT090 14.2 -7.3 22% 75.69 0.0
07 18:55 NW 11 16.09 Partly Cloudy SCT090 15.1 -6.5 15.5 11.9 22% 75.72 0.0
07 18:35 W 11 16.09 Fair CLR 14.8 -7.2 21% 75.72 0.0
07 18:15 W 9 16.09 Partly Cloudy SCT090 14.8 -7.3 21% 75.72 0.0
07 17:55 W 11 16.09 Partly Cloudy SCT090 14.9 -7.3 21% 75.72 0.0
07 17:35 NW 11 16.09 Partly Cloudy SCT090 15.4 -6.8 21% 75.74 0.0
07 17:15 W 7 16.09 Partly Cloudy SCT090 15.1 -7.5 20% 75.74 0.0
07 16:55 NW 17 G 26 16.09 Partly Cloudy SCT090 15.3 -7.3 21% 75.74 0.0
07 16:35 W 19 G 30 16.09 Partly Cloudy SCT090 15.1 -7.7 20% 75.77 0.0
07 16:15 NW 19 G 26 16.09 Partly Cloudy SCT080 14.3 -7.7 21% 75.77 0.0
07 15:55 NW 19 G 26 16.09 Partly Cloudy SCT080 14.4 -7.6 21% 75.79 0.0
07 15:35 W 11 16.09 Partly Cloudy SCT080 14.4 -7.4 22% 75.79 0.0
07 15:15 W 17 16.09 Partly Cloudy SCT080 14.1 -8 21% 75.82 0.0
07 14:55 W 9 G 28 16.09 Partly Cloudy SCT080 13.5 -8 22% 75.84 0.0
07 14:35 SW 15 G 30 16.09 Fair CLR 13.6 -7.2 23% 75.84 0.0
07 14:15 NW 7 16.09 Fair CLR 13 -8.5 22% 75.87 0.0
07 13:55 W 15 G 30 16.09 Fair CLR 13.3 -7.4 23% 75.87 0.0
07 13:35 NW 7 16.09 Fair CLR 12.5 -8.7 22% 75.87 0.0
07 13:15 Calm 16.09 Fair CLR 12.2 -9 22% 75.87 0.0
07 12:55 W 7 G 26 16.09 Fair CLR 11.9 -9.4 11.9 -1 22% 75.9 0.0
07 12:35 Calm 16.09 Fair CLR 11.4 -8.5 24% 75.92 0.0
07 12:15 SW 6 16.09 Fair CLR 11.5 -8.4 24% 75.92 0.0
07 11:55 NW 9 16.09 Fair CLR 10.6 -9.1 24% 75.95 0.0
07 11:35 NW 7 16.09 Fair CLR 10.7 -7.7 27% 75.95 0.0
07 11:15 W 9 16.09 Fair CLR 10 -9.4 25% 9 75.97 0.0
07 10:55 N 6 16.09 Fair CLR 9.7 -8.6 27% 75.97 0.0
07 10:35 W 7 16.09 Fair CLR 9.9 -6.9 30% 9 75.97 0.0
07 10:15 W 6 16.09 Fair CLR 9 -7.4 31% 75.97 0.0
07 09:55 W 6 16.09 Fair CLR 8.6 -6.6 34% 75.97 0.0
Date Time (cdt) Wind (kph) Vis. (km) Weather Sky Cond. Air Dwpt Max. Min. Relative Humidity Wind Chill (°C) Heat Index (°C) altimeter (cm) sea level (mb) 1 hr 3 hr 6 hr
6 hour
Temperature (ºC) Pressure Precipitation (cm)